Snaith, United Kingdom
Current Conditions -  °F | °C
As of 10:20 AM on Thursday 27 Nov 2014 (Local Time) from EGCN Reporting Station
Moderate Fog Moderate Fog  
Wind Chill:   Ceiling: 100
Heat Index:   Visibility: 0.15mi
Dew Point:   Wind: 3mph
Humidity: 93%   Direction: 20°NNE
Pressure: 29.62"   Gusts: NA
Location:  53.69°N, 1.03°W
Report Text: EGCN 271020Z 02003KT 0250 R20/0225 FG OVC001 08/07 Q1003
Loading
Personal Weather Stations






























Interactive Weather Map New forecast layout! Learn more

10-Day Weather Forecast

Advertisements
Track Severe Weather on mobile